Time;durP1;ratioP1;P1;durP2;ratioP2;P2;SDS_P1;SDS_P2;PMS_P1;PMS_P2;Temp;Humidity;BMP_temperature;BMP_pressure;BME280_temperature;BME280_humidity;BME280_pressure;Samples;Min_cycle;Max_cycle;Signal;HPM_P1;HPM_P2
2021/05/06 00:36:16;;;;;;;5.45;2.48;;;;;;;6.76;100.00;99194.54;255630;1100;114285;-74
2021/05/06 01:12:07;;;;;;;4.05;2.10;;;;;;;6.47;100.00;99231.06;255469;1099;114382;-75
2021/05/06 01:17:09;;;;;;;4.90;2.03;;;;;;;6.49;100.00;99230.99;255544;1104;114297;-77
2021/05/06 01:22:11;;;;;;;4.20;1.60;;;;;;;6.39;100.00;99235.81;255161;1104;114496;-75
2021/05/06 01:27:17;;;;;;;3.77;2.20;;;;;;;6.42;100.00;99256.00;255544;1100;114356;-74
2021/05/06 01:32:27;;;;;;;4.58;1.60;;;;;;;6.44;100.00;99249.71;255702;1104;114358;-76
2021/05/06 01:42:49;;;;;;;3.30;1.40;;;;;;;6.44;100.00;99255.01;255665;1105;114268;-75
2021/05/06 01:48:47;;;;;;;4.53;1.30;;;;;;;6.41;100.00;99259.56;255743;1104;114662;-74
2021/05/06 01:59:32;;;;;;;1.83;1.20;;;;;;;6.37;100.00;99256.18;255514;1099;114396;-75
2021/05/06 02:04:01;;;;;;;3.00;1.40;;;;;;;6.37;100.00;99258.83;255396;1104;114348;-74
2021/05/06 02:09:04;;;;;;;2.80;1.33;;;;;;;6.24;100.00;99257.61;255274;1104;114259;-74
2021/05/06 02:14:07;;;;;;;6.23;1.67;;;;;;;6.19;100.00;99263.96;255502;1104;114163;-75
2021/05/06 02:19:09;;;;;;;1.98;1.25;;;;;;;6.05;100.00;99253.91;255425;1104;114045;-76
2021/05/06 02:24:11;;;;;;;1.80;1.48;;;;;;;6.04;100.00;99262.77;255634;1104;114409;-74
2021/05/06 02:29:13;;;;;;;2.48;2.00;;;;;;;6.02;100.00;99248.76;255264;1104;114750;-75
2021/05/06 02:34:14;;;;;;;3.47;1.47;;;;;;;6.05;100.00;99264.49;257447;1104;114402;-73
2021/05/06 02:39:16;;;;;;;5.28;3.38;;;;;;;6.30;100.00;99267.94;256939;1100;114488;-74
2021/05/06 02:44:18;;;;;;;3.87;2.40;;;;;;;6.32;100.00;99288.13;255307;1104;114150;-75
2021/05/06 02:49:21;;;;;;;2.87;1.40;;;;;;;6.26;100.00;99287.53;255652;1100;114634;-76
2021/05/06 02:54:24;;;;;;;2.88;1.50;;;;;;;6.14;100.00;99289.72;255518;1104;114524;-74
2021/05/06 03:04:30;;;;;;;3.70;1.13;;;;;;;6.01;100.00;99304.35;255748;1100;114030;-73
2021/05/06 03:24:58;;;;;;;4.55;1.40;;;;;;;5.74;100.00;99344.13;255948;1099;114363;-76
2021/05/06 04:27:24;;;;;;;7.50;1.88;;;;;;;5.62;100.00;99445.91;255525;1104;114528;-75
2021/05/06 04:37:47;;;;;;;5.97;1.90;;;;;;;5.66;100.00;99446.66;255609;1104;114118;-74
2021/05/06 05:08:46;;;;;;;1.60;1.00;;;;;;;5.85;100.00;99483.91;254555;1100;114408;-75
2021/05/06 05:19:29;;;;;;;7.95;1.90;;;;;;;5.96;100.00;99476.44;255026;1100;114114;-75
2021/05/06 05:24:44;;;;;;;3.10;1.65;;;;;;;6.02;100.00;99470.99;255649;1104;114137;-75
2021/05/06 05:29:46;;;;;;;5.27;3.17;;;;;;;6.08;100.00;99480.47;255639;1104;114238;-75
2021/05/06 05:35:01;;;;;;;4.53;2.00;;;;;;;6.25;100.00;99486.94;254834;1107;114513;-74
2021/05/06 05:55:52;;;;;;;6.10;1.53;;;;;;;6.21;99.46;99513.50;257586;1100;114081;-75
2021/05/06 06:00:54;;;;;;;5.15;1.93;;;;;;;6.33;99.86;99498.97;255718;1104;113901;-75
2021/05/06 06:05:56;;;;;;;7.70;2.40;;;;;;;6.37;99.04;99512.95;255801;1104;113987;-75
2021/05/06 06:10:58;;;;;;;4.33;1.05;;;;;;;6.41;98.70;99533.12;256067;1099;113998;-75
2021/05/06 06:16:04;;;;;;;4.13;2.37;;;;;;;6.45;98.44;99524.13;255081;1106;113814;-73
2021/05/06 06:26:08;;;;;;;5.38;2.15;;;;;;;6.60;97.47;99508.59;256078;1104;114287;-75
2021/05/06 06:36:21;;;;;;;2.48;1.70;;;;;;;6.76;94.91;99562.72;255834;1104;114256;-75
2021/05/06 06:41:23;;;;;;;5.33;2.03;;;;;;;6.79;94.32;99522.85;255457;1100;113932;-74
2021/05/06 06:46:25;;;;;;;5.03;1.33;;;;;;;6.81;91.37;99547.50;255049;1100;113810;-75
2021/05/06 06:51:27;;;;;;;5.73;1.50;;;;;;;6.95;92.52;99552.26;255883;1104;114054;-75
2021/05/06 06:56:29;;;;;;;3.93;1.73;;;;;;;6.99;94.04;99556.53;254942;1107;113889;-75
2021/05/06 07:01:32;;;;;;;4.60;1.68;;;;;;;7.15;90.82;99532.94;255911;1100;114141;-75
2021/05/06 07:06:34;;;;;;;4.58;2.05;;;;;;;7.14;89.54;99544.46;256051;1100;114335;-74
2021/05/06 07:11:39;;;;;;;3.00;1.27;;;;;;;7.33;90.03;99541.06;254963;1100;113759;-76
2021/05/06 07:16:41;;;;;;;6.20;1.83;;;;;;;7.36;88.31;99561.31;256083;1099;113812;-75
2021/05/06 07:21:42;;;;;;;4.85;1.60;;;;;;;7.34;86.88;99570.19;254718;1100;113851;-75
2021/05/06 07:26:44;;;;;;;2.93;1.10;;;;;;;7.49;86.67;99573.16;256013;1104;114360;-74
2021/05/06 07:31:47;;;;;;;5.45;2.00;;;;;;;7.50;87.13;99572.23;254626;1107;114064;-75
2021/05/06 07:36:49;;;;;;;4.13;1.80;;;;;;;7.44;88.19;99565.38;255002;1106;114067;-78
2021/05/06 07:41:50;;;;;;;2.75;1.50;;;;;;;7.65;88.01;99573.38;256026;1104;113803;-75
2021/05/06 07:47:08;;;;;;;4.05;1.50;;;;;;;7.60;85.02;99570.06;256005;1104;113931;-74
2021/05/06 07:52:14;;;;;;;3.27;1.53;;;;;;;7.69;86.96;99574.13;254389;1100;114008;-76
2021/05/06 07:57:16;;;;;;;4.50;1.75;;;;;;;7.95;91.25;99565.93;255998;1100;113985;-75
2021/05/06 08:02:18;;;;;;;5.05;1.75;;;;;;;8.21;85.20;99587.83;256166;1099;114008;-76
2021/05/06 08:07:20;;;;;;;3.45;1.35;;;;;;;8.00;81.27;99581.66;254908;1100;113972;-75
2021/05/06 08:12:23;;;;;;;3.70;1.57;;;;;;;8.16;80.49;99591.63;255020;1106;113912;-76
2021/05/06 08:17:25;;;;;;;3.48;1.50;;;;;;;8.17;76.00;99580.09;254874;1100;113854;-74
2021/05/06 08:22:26;;;;;;;6.10;1.83;;;;;;;8.33;79.96;99586.44;255881;1104;114000;-74
2021/05/06 08:27:30;;;;;;;3.30;1.48;;;;;;;8.60;76.53;99594.14;254591;1100;113875;-76
2021/05/06 08:32:32;;;;;;;2.53;1.38;;;;;;;8.69;75.38;99622.97;254578;1100;114181;-75
2021/05/06 08:37:34;;;;;;;3.15;1.43;;;;;;;8.85;74.71;99595.71;254993;1100;113853;-77
2021/05/06 08:42:36;;;;;;;2.75;1.65;;;;;;;8.72;71.76;99593.62;255920;1104;114175;-77
2021/05/06 08:47:38;;;;;;;4.08;1.85;;;;;;;9.05;73.73;99597.47;254762;1107;114180;-74
2021/05/06 08:52:41;;;;;;;2.68;1.35;;;;;;;8.98;70.01;99614.63;254549;1100;114635;-75
2021/05/06 08:57:42;;;;;;;3.73;1.43;;;;;;;8.83;62.60;99616.17;254968;1107;114298;-75
2021/05/06 09:02:48;;;;;;;3.03;1.18;;;;;;;9.28;61.42;99620.31;255713;1104;114274;-74
2021/05/06 09:07:50;;;;;;;4.28;1.48;;;;;;;8.96;59.21;99621.80;254614;1100;114489;-74
2021/05/06 09:12:52;;;;;;;6.75;1.93;;;;;;;8.81;59.53;99620.72;255402;1099;114748;-76
2021/05/06 09:17:54;;;;;;;6.43;1.73;;;;;;;9.29;58.81;99614.06;255603;1104;114139;-74
2021/05/06 09:22:57;;;;;;;3.68;1.30;;;;;;;9.48;54.12;99631.80;255140;1107;114357;-76
2021/05/06 09:28:05;;;;;;;3.63;1.80;;;;;;;9.44;54.61;99632.89;255231;1099;114471;-74
2021/05/06 09:33:10;;;;;;;3.30;1.70;;;;;;;9.52;54.54;99615.62;255831;1104;114158;-75
2021/05/06 09:38:25;;;;;;;3.63;1.63;;;;;;;9.62;54.65;99610.71;255813;1104;114102;-74
2021/05/06 09:43:40;;;;;;;3.45;1.30;;;;;;;9.82;52.76;99617.73;254848;1107;114203;-75
2021/05/06 09:48:42;;;;;;;4.33;1.70;;;;;;;10.15;53.79;99634.77;257137;1100;114139;-74
2021/05/06 09:53:57;;;;;;;2.93;1.27;;;;;;;9.92;50.71;99623.46;258799;1099;114472;-74
2021/05/06 09:59:00;;;;;;;4.23;1.37;;;;;;;10.35;50.82;99645.27;259997;1107;113982;-75
2021/05/06 10:04:16;;;;;;;2.27;1.30;;;;;;;10.71;48.48;99637.28;256347;1104;114368;-75
2021/05/06 10:09:17;;;;;;;3.55;1.50;;;;;;;10.83;47.91;99620.63;255364;1100;114647;-77
2021/05/06 10:14:19;;;;;;;2.33;1.33;;;;;;;10.72;47.79;99633.64;256020;1104;114440;-76
2021/05/06 10:19:21;;;;;;;3.05;2.08;;;;;;;10.43;47.30;99630.72;255910;1100;114276;-75
2021/05/06 10:24:23;;;;;;;4.08;1.65;;;;;;;10.97;46.91;99622.53;254780;1100;114234;-76
2021/05/06 10:29:25;;;;;;;2.50;1.43;;;;;;;11.17;44.26;99616.13;255569;1100;114428;-74
2021/05/06 10:34:28;;;;;;;2.83;1.85;;;;;;;11.04;44.42;99623.08;255875;1100;114788;-75
2021/05/06 10:39:56;;;;;;;2.55;1.60;;;;;;;10.80;45.06;99634.11;256154;1099;114408;-74
2021/05/06 10:45:21;;;;;;;2.73;1.55;;;;;;;10.84;44.70;99633.02;255982;1099;114196;-76
2021/05/06 10:50:35;;;;;;;3.35;1.55;;;;;;;10.75;45.45;99625.50;255262;1100;114384;-73
2021/05/06 10:55:43;;;;;;;3.75;1.63;;;;;;;11.68;44.99;99639.98;255048;1100;114560;-75
2021/05/06 11:00:45;;;;;;;7.73;3.65;;;;;;;11.72;44.21;99621.98;255121;1100;114495;-75
2021/05/06 11:05:50;;;;;;;3.25;1.43;;;;;;;11.72;41.21;99621.98;256092;1103;115155;-74
2021/05/06 11:10:51;;;;;;;5.23;1.80;;;;;;;11.09;40.02;99629.02;254541;1100;114592;-75
2021/05/06 11:16:16;;;;;;;3.50;1.57;;;;;;;11.60;41.96;99611.06;254844;1106;114308;-75
2021/05/06 11:21:30;;;;;;;3.75;1.80;;;;;;;11.68;41.14;99628.45;256002;1100;114470;-75
2021/05/06 11:26:32;;;;;;;2.95;1.48;;;;;;;11.29;42.40;99628.78;256243;1100;114711;-76
2021/05/06 11:31:47;;;;;;;4.60;1.65;;;;;;;12.25;41.17;99647.44;254739;1106;114379;-75
2021/05/06 11:36:49;;;;;;;3.13;1.50;;;;;;;11.55;41.25;99628.27;255316;1107;114317;-74
2021/05/06 11:41:51;;;;;;;4.40;2.00;;;;;;;12.05;39.29;99642.40;256744;1104;114649;-74
2021/05/06 11:46:53;;;;;;;4.20;2.25;;;;;;;11.88;39.87;99625.50;256007;1104;114655;-75
2021/05/06 11:51:54;;;;;;;3.08;1.38;;;;;;;12.62;39.31;99619.42;256006;1099;114464;-76
2021/05/06 11:57:02;;;;;;;5.23;1.43;;;;;;;12.25;37.76;99610.02;256420;1100;114239;-75
2021/05/06 12:02:06;;;;;;;3.30;1.28;;;;;;;13.09;36.08;99626.34;255457;1100;114237;-74
2021/05/06 12:07:18;;;;;;;4.05;1.35;;;;;;;14.16;32.46;99612.31;255806;1104;114991;-76
2021/05/06 12:12:22;;;;;;;1.55;0.93;;;;;;;11.99;34.48;99608.00;256628;1099;114576;-74
2021/05/06 12:17:25;;;;;;;3.45;3.00;;;;;;;13.23;33.80;99598.70;256581;1104;114154;-73
2021/05/06 12:22:26;;;;;;;2.23;1.63;;;;;;;12.37;36.71;99591.52;256357;1100;114335;-72
2021/05/06 12:27:31;;;;;;;2.00;1.80;;;;;;;11.92;37.63;99597.66;255420;1100;114219;-73
2021/05/06 12:32:34;;;;;;;2.53;2.00;;;;;;;11.52;39.67;99602.63;255888;1104;114801;-72
2021/05/06 12:37:41;;;;;;;2.85;1.90;;;;;;;11.59;39.40;99593.32;254898;1107;114240;-71
2021/05/06 12:42:43;;;;;;;3.77;1.77;;;;;;;12.78;37.82;99588.13;256180;1104;114408;-74
2021/05/06 12:47:49;;;;;;;1.90;1.45;;;;;;;12.10;38.70;99571.70;254776;1107;114218;-74
2021/05/06 12:52:53;;;;;;;3.48;2.08;;;;;;;11.73;40.46;99579.19;254691;1107;114384;-74
2021/05/06 12:58:15;;;;;;;4.08;1.58;;;;;;;11.59;40.73;99577.30;255138;1103;114302;-73
2021/05/06 13:03:19;;;;;;;12.13;8.73;;;;;;;11.37;41.72;99598.14;254912;1106;114577;-72
2021/05/06 13:08:56;;;;;;;3.38;2.53;;;;;;;10.86;45.82;99588.45;257839;1100;114400;-73
2021/05/06 13:14:04;;;;;;;2.13;1.90;;;;;;;11.00;43.25;99587.72;256744;1107;114183;-74
2021/05/06 13:19:09;;;;;;;3.43;1.73;;;;;;;10.73;44.16;99624.71;259065;1106;114277;-73
2021/05/06 13:24:10;;;;;;;4.68;1.60;;;;;;;12.06;42.96;99614.71;256546;1100;114680;-74
2021/05/06 13:29:18;;;;;;;7.93;3.40;;;;;;;12.69;40.96;99599.38;255832;1099;114287;-78
2021/05/06 13:34:26;;;;;;;3.48;1.73;;;;;;;13.13;41.59;99587.72;254957;1107;114437;-74
2021/05/06 13:39:29;;;;;;;2.73;1.40;;;;;;;12.86;39.92;99593.86;254986;1100;114668;-74
2021/05/06 13:44:31;;;;;;;3.60;1.63;;;;;;;11.75;41.49;99590.63;255165;1107;114498;-74
2021/05/06 13:49:34;;;;;;;1.70;1.60;;;;;;;12.31;41.89;99583.88;254697;1107;114331;-73
2021/05/06 13:54:36;;;;;;;3.25;1.40;;;;;;;12.03;40.03;99581.03;254928;1100;114418;-73
2021/05/06 13:59:37;;;;;;;0.87;0.73;;;;;;;12.48;38.28;99593.55;255643;1100;114410;-74
2021/05/06 14:04:39;;;;;;;4.28;1.28;;;;;;;13.08;37.52;99577.30;255383;1104;114260;-73
2021/05/06 14:09:42;;;;;;;0.90;0.83;;;;;;;13.48;33.38;99571.23;255910;1100;114805;-74
2021/05/06 14:14:43;;;;;;;1.15;0.80;;;;;;;13.63;34.51;99584.58;255023;1107;114517;-75
2021/05/06 14:19:45;;;;;;;1.90;0.90;;;;;;;13.36;36.01;99578.21;254948;1107;114388;-75
2021/05/06 14:24:47;;;;;;;3.83;1.65;;;;;;;13.28;35.58;99568.97;255282;1107;114546;-76
2021/05/06 14:29:48;;;;;;;1.98;1.38;;;;;;;13.59;35.69;99567.86;255502;1107;114433;-74
2021/05/06 14:34:51;;;;;;;1.60;1.20;;;;;;;14.08;34.84;99563.73;255189;1107;114461;-74
2021/05/06 14:39:53;;;;;;;1.93;1.08;;;;;;;12.87;36.37;99562.61;256145;1104;114245;-76
2021/05/06 14:44:54;;;;;;;1.88;1.20;;;;;;;13.39;36.48;99545.09;255973;1104;114538;-76
2021/05/06 14:49:59;;;;;;;2.48;1.70;;;;;;;13.17;36.72;99562.51;256082;1104;114325;-75
2021/05/06 14:55:01;;;;;;;2.23;1.60;;;;;;;13.28;34.48;99559.14;256166;1100;114257;-73
2021/05/06 15:00:06;;;;;;;1.90;1.48;;;;;;;13.66;34.67;99546.91;255204;1100;114588;-74
2021/05/06 15:05:08;;;;;;;2.85;2.33;;;;;;;12.78;37.50;99537.31;255790;1099;114193;-72
2021/05/06 15:10:11;;;;;;;2.48;1.13;;;;;;;13.04;35.84;99553.52;254409;1107;114191;-75
2021/05/06 15:15:15;;;;;;;2.23;1.20;;;;;;;12.43;36.14;99540.36;254990;1107;114290;-73
2021/05/06 15:20:23;;;;;;;2.20;1.13;;;;;;;13.34;35.69;99531.09;254505;1106;114340;-74
2021/05/06 15:25:25;;;;;;;6.78;4.55;;;;;;;13.79;35.41;99523.69;254527;1100;114303;-73
2021/05/06 15:30:27;;;;;;;4.13;2.20;;;;;;;13.52;34.73;99531.73;255494;1104;114274;-74
2021/05/06 15:35:29;;;;;;;3.63;1.70;;;;;;;12.79;36.51;99522.98;254652;1107;114751;-72
2021/05/06 15:40:31;;;;;;;3.70;1.20;;;;;;;12.84;37.39;99518.20;255431;1104;114488;-75
2021/05/06 15:45:34;;;;;;;2.97;1.87;;;;;;;12.30;39.65;99508.17;255455;1100;114448;-71
2021/05/06 15:50:35;;;;;;;1.63;1.23;;;;;;;12.06;38.79;99507.86;254464;1106;114596;-72
2021/05/06 15:55:37;;;;;;;2.13;1.35;;;;;;;11.90;40.25;99507.89;255035;1104;114545;-73
2021/05/06 16:00:39;;;;;;;4.73;1.58;;;;;;;11.82;41.02;99513.70;255435;1104;114180;-77
2021/05/06 16:05:46;;;;;;;1.80;1.70;;;;;;;11.76;40.47;99532.77;254706;1107;114197;-71
2021/05/06 16:10:50;;;;;;;1.63;1.40;;;;;;;11.45;42.03;99574.56;255362;1099;114426;-73
2021/05/06 16:15:52;;;;;;;3.33;2.17;;;;;;;10.63;48.03;99577.24;255441;1099;114820;-71
2021/05/06 16:20:53;;;;;;;1.93;1.83;;;;;;;10.35;51.51;99554.69;255114;1104;114313;-72
2021/05/06 16:25:55;;;;;;;2.07;1.70;;;;;;;10.19;55.17;99540.44;255831;1104;114674;-73
2021/05/06 16:30:57;;;;;;;2.73;2.23;;;;;;;10.23;56.46;99552.64;256877;1099;114357;-73
2021/05/06 16:36:24;;;;;;;3.03;2.73;;;;;;;9.91;58.63;99563.16;259040;1104;114235;-71
2021/05/06 16:41:32;;;;;;;2.38;2.18;;;;;;;9.93;60.01;99563.95;258372;1099;114441;-72
2021/05/06 16:46:34;;;;;;;2.10;1.95;;;;;;;10.24;57.28;99549.05;257672;1104;114088;-72
2021/05/06 16:51:35;;;;;;;4.05;1.75;;;;;;;10.51;57.25;99530.78;256189;1100;114581;-70
2021/05/06 16:56:37;;;;;;;3.47;3.03;;;;;;;10.43;57.78;99540.98;256070;1104;114218;-72
2021/05/06 17:01:41;;;;;;;6.33;4.83;;;;;;;10.51;57.48;99540.56;256130;1104;114541;-72
2021/05/06 17:06:45;;;;;;;5.95;3.48;;;;;;;10.47;58.74;99525.70;255983;1100;114361;-71
2021/05/06 17:11:47;;;;;;;4.68;2.95;;;;;;;10.44;57.21;99533.84;256142;1100;114151;-72
2021/05/06 17:16:49;;;;;;;3.00;2.70;;;;;;;10.41;57.66;99524.21;255766;1104;114580;-71
2021/05/06 17:21:51;;;;;;;4.03;2.25;;;;;;;10.35;57.91;99520.06;255491;1100;114326;-72
2021/05/06 17:26:52;;;;;;;2.23;2.03;;;;;;;10.27;58.66;99532.92;256011;1104;114248;-71
2021/05/06 17:31:54;;;;;;;3.33;2.70;;;;;;;10.05;60.98;99544.69;255659;1100;114521;-73
2021/05/06 17:36:56;;;;;;;3.05;2.60;;;;;;;9.97;61.02;99541.55;255857;1104;114618;-71
2021/05/06 17:41:57;;;;;;;3.18;2.88;;;;;;;9.85;58.94;99547.50;255698;1100;114379;-71
2021/05/06 17:47:05;;;;;;;5.75;3.18;;;;;;;9.91;57.63;99552.52;255784;1099;114340;-72
2021/05/06 17:52:07;;;;;;;4.18;3.13;;;;;;;9.88;57.68;99549.99;255795;1104;115107;-73
2021/05/06 17:57:09;;;;;;;4.53;1.98;;;;;;;9.78;57.36;99554.08;255891;1104;114095;-71
2021/05/06 18:02:11;;;;;;;2.57;2.10;;;;;;;9.77;57.59;99547.02;255920;1100;115452;-71
2021/05/06 18:07:13;;;;;;;2.53;1.63;;;;;;;9.68;58.15;99554.52;255919;1104;114004;-74
2021/05/06 18:12:17;;;;;;;3.88;2.25;;;;;;;9.64;58.04;99560.06;255675;1104;114582;-73
2021/05/06 18:17:19;;;;;;;2.60;2.38;;;;;;;9.53;60.31;99563.26;255722;1100;113959;-72
2021/05/06 18:22:21;;;;;;;6.98;2.70;;;;;;;9.43;61.35;99556.68;255530;1100;114175;-75
2021/05/06 18:27:22;;;;;;;3.25;1.98;;;;;;;9.34;60.93;99552.67;255828;1104;113908;-75
2021/05/06 18:32:24;;;;;;;3.63;2.80;;;;;;;9.29;61.43;99554.67;255844;1104;114028;-73
2021/05/06 18:37:26;;;;;;;4.05;3.43;;;;;;;9.22;62.50;99554.97;257166;1105;113842;-73
2021/05/06 18:42:28;;;;;;;10.73;7.75;;;;;;;9.14;63.44;99553.63;256564;1100;113917;-71
2021/05/06 18:47:30;;;;;;;3.83;2.50;;;;;;;9.14;63.90;99561.59;255604;1104;114583;-70
2021/05/06 18:52:31;;;;;;;5.30;3.98;;;;;;;9.20;62.17;99569.28;257610;1104;114370;-73
2021/05/06 18:57:33;;;;;;;2.93;2.13;;;;;;;9.06;64.01;99584.09;258526;1104;113888;-72
2021/05/06 19:02:34;;;;;;;4.80;3.85;;;;;;;9.13;68.08;99579.33;255284;1099;114122;-72
2021/05/06 19:07:36;;;;;;;4.57;3.93;;;;;;;8.95;71.21;99573.08;254983;1104;114018;-72
2021/05/06 19:12:38;;;;;;;3.68;3.23;;;;;;;9.14;71.10;99572.23;255490;1104;114462;-72
2021/05/06 19:17:40;;;;;;;4.73;3.27;;;;;;;9.09;77.78;99567.97;255374;1104;114354;-71
2021/05/06 19:22:43;;;;;;;4.50;3.57;;;;;;;8.97;76.92;99571.22;255255;1099;114430;-71
2021/05/06 19:27:45;;;;;;;4.83;3.50;;;;;;;8.80;75.05;99568.49;255932;1099;114469;-68
2021/05/06 19:32:48;;;;;;;4.08;2.93;;;;;;;8.72;74.83;99563.52;255283;1100;114351;-70
2021/05/06 19:37:51;;;;;;;3.35;3.05;;;;;;;8.60;76.48;99572.89;255710;1104;114653;-71
2021/05/06 19:43:01;;;;;;;2.73;2.48;;;;;;;8.70;76.89;99562.73;255532;1104;114057;-70
2021/05/06 19:48:04;;;;;;;6.38;3.08;;;;;;;8.51;78.89;99568.86;255300;1100;114354;-70
2021/05/06 19:53:06;;;;;;;4.43;3.50;;;;;;;8.37;81.96;99580.08;255054;1104;114520;-70
2021/05/06 19:58:08;;;;;;;5.30;3.35;;;;;;;8.27;85.13;99579.63;255444;1104;113879;-67
2021/05/06 20:03:09;;;;;;;3.38;2.83;;;;;;;8.21;87.74;99581.67;255716;1099;114388;-71
2021/05/06 20:08:11;;;;;;;3.60;2.80;;;;;;;8.11;87.33;99576.75;255129;1099;113877;-71
2021/05/06 20:13:13;;;;;;;3.60;2.88;;;;;;;8.26;88.50;99579.67;255370;1100;114161;-70
2021/05/06 20:18:15;;;;;;;5.20;4.03;;;;;;;8.24;86.48;99576.24;255295;1104;114615;-70
2021/05/06 20:23:17;;;;;;;4.55;3.80;;;;;;;8.02;89.83;99586.90;254826;1104;115290;-69
2021/05/06 20:28:18;;;;;;;3.95;3.55;;;;;;;8.12;85.30;99589.09;255699;1100;114534;-70
2021/05/06 20:33:20;;;;;;;3.28;2.98;;;;;;;8.18;88.32;99584.44;255440;1100;114042;-70
2021/05/06 20:38:22;;;;;;;10.33;3.33;;;;;;;8.18;91.44;99589.75;255439;1100;113795;-70
2021/05/06 20:43:28;;;;;;;5.95;4.45;;;;;;;7.94;94.13;99585.43;255456;1104;114152;-70
2021/05/06 20:48:30;;;;;;;6.35;5.28;;;;;;;7.86;95.83;99584.03;255497;1099;113796;-71
2021/05/06 20:53:32;;;;;;;26.83;18.20;;;;;;;8.22;94.40;99594.87;255722;1100;113913;-70
2021/05/06 20:58:33;;;;;;;24.60;15.70;;;;;;;8.28;93.52;99577.81;255350;1100;114299;-68
2021/05/06 21:03:35;;;;;;;19.00;12.78;;;;;;;8.28;91.62;99577.81;255411;1104;114575;-68
2021/05/06 21:08:37;;;;;;;14.90;10.98;;;;;;;8.29;91.46;99571.58;255549;1104;114521;-69
2021/05/06 21:13:39;;;;;;;12.88;10.23;;;;;;;8.18;91.73;99572.05;255508;1104;114496;-70
2021/05/06 21:18:40;;;;;;;11.08;8.38;;;;;;;8.14;90.62;99573.97;255649;1100;114381;-70
2021/05/06 21:23:42;;;;;;;11.43;9.17;;;;;;;8.04;93.73;99575.28;255068;1104;114213;-70
2021/05/06 21:28:44;;;;;;;11.65;8.40;;;;;;;7.91;96.77;99566.12;255820;1099;114175;-70
2021/05/06 21:33:46;;;;;;;11.90;9.73;;;;;;;7.86;100.00;99562.80;255738;1099;114574;-73
2021/05/06 21:38:47;;;;;;;10.05;8.45;;;;;;;7.79;100.00;99565.72;255375;1104;114623;-73
2021/05/06 21:43:49;;;;;;;9.88;8.78;;;;;;;7.78;100.00;99569.30;254863;1104;114577;-74
2021/05/06 21:48:52;;;;;;;11.33;9.47;;;;;;;7.90;100.00;99551.12;255357;1104;114355;-73
2021/05/06 21:53:55;;;;;;;11.03;9.85;;;;;;;7.97;100.00;99542.84;256150;1099;114347;-72
2021/05/06 21:58:57;;;;;;;13.00;11.65;;;;;;;7.97;100.00;99526.05;255706;1104;114599;-74
2021/05/06 22:03:58;;;;;;;15.65;13.70;;;;;;;7.90;100.00;99538.73;255681;1100;114773;-74
2021/05/06 22:09:00;;;;;;;16.47;14.37;;;;;;;7.92;100.00;99528.04;255752;1104;114658;-74
2021/05/06 22:14:02;;;;;;;15.00;13.28;;;;;;;7.94;100.00;99520.89;256423;1104;114516;-73
2021/05/06 22:19:05;;;;;;;14.65;12.60;;;;;;;8.01;100.00;99510.85;256616;1104;114605;-73
2021/05/06 22:24:07;;;;;;;13.33;12.00;;;;;;;7.96;100.00;99503.12;256366;1099;114924;-72
2021/05/06 22:29:09;;;;;;;15.00;11.80;;;;;;;7.98;100.00;99499.46;256486;1104;114546;-74
2021/05/06 22:34:11;;;;;;;14.93;12.30;;;;;;;8.01;100.00;99500.23;256377;1100;114560;-74
2021/05/06 22:39:12;;;;;;;16.30;12.50;;;;;;;7.99;100.00;99510.92;256321;1100;114785;-73
2021/05/06 22:44:14;;;;;;;13.38;10.93;;;;;;;7.97;100.00;99494.20;256287;1100;115196;-74
2021/05/06 22:49:15;;;;;;;11.93;9.88;;;;;;;7.95;100.00;99486.31;256281;1099;114700;-74
2021/05/06 22:54:17;;;;;;;10.45;9.35;;;;;;;7.94;100.00;99489.05;256215;1100;114539;-73
2021/05/06 22:59:18;;;;;;;12.13;9.90;;;;;;;7.93;100.00;99487.31;255762;1100;114441;-74
2021/05/06 23:04:20;;;;;;;10.93;9.33;;;;;;;7.87;100.00;99475.16;255944;1104;114301;-73
2021/05/06 23:09:22;;;;;;;10.40;9.30;;;;;;;7.75;100.00;99473.90;255269;1099;114220;-73
2021/05/06 23:14:23;;;;;;;11.70;9.00;;;;;;;7.82;100.00;99464.75;256415;1104;114295;-73
2021/05/06 23:19:25;;;;;;;9.75;8.25;;;;;;;7.90;100.00;99445.85;257610;1100;114244;-73
2021/05/06 23:24:27;;;;;;;9.30;8.30;;;;;;;7.97;100.00;99462.35;259033;1104;114155;-73
2021/05/06 23:29:28;;;;;;;10.13;8.35;;;;;;;8.00;100.00;99464.03;258167;1104;114261;-73
2021/05/06 23:34:30;;;;;;;8.78;7.98;;;;;;;7.97;100.00;99462.35;257522;1104;114715;-75
2021/05/06 23:39:32;;;;;;;10.80;8.40;;;;;;;7.91;100.00;99468.81;255765;1100;114396;-73
2021/05/06 23:44:33;;;;;;;9.20;8.13;;;;;;;7.86;100.00;99465.47;255667;1100;114680;-74
2021/05/06 23:49:35;;;;;;;8.90;8.00;;;;;;;7.88;100.00;99455.66;255605;1100;114974;-73
2021/05/06 23:54:37;;;;;;;8.68;7.68;;;;;;;7.87;100.00;99458.39;255490;1100;114381;-74
2021/05/06 23:59:38;;;;;;;8.57;7.77;;;;;;;7.85;100.00;99457.59;255917;1099;114218;-75
